createdAt,value
2018-11-06T00:00:33.737Z,8.83
2018-11-06T00:03:07.819Z,8.70
2018-11-06T00:05:36.452Z,9.07
2018-11-06T00:08:05.792Z,9.33
2018-11-06T00:10:34.732Z,9.77
2018-11-06T00:13:03.307Z,8.43
2018-11-06T00:15:32.027Z,9.50
2018-11-06T00:18:00.705Z,8.90
2018-11-06T00:20:29.402Z,8.90
2018-11-06T00:22:58.064Z,9.33
2018-11-06T00:25:26.759Z,8.57
2018-11-06T00:27:55.440Z,9.17
2018-11-06T00:30:24.127Z,9.57
2018-11-06T00:32:52.802Z,8.70
2018-11-06T00:35:21.509Z,8.63
2018-11-06T00:37:50.184Z,9.00
2018-11-06T00:40:18.896Z,8.90
2018-11-06T00:42:47.555Z,8.87
2018-11-06T00:45:17.123Z,8.37
2018-11-06T00:47:45.740Z,8.83
2018-11-06T00:50:14.703Z,8.57
2018-11-06T00:52:44.002Z,7.90
2018-11-06T00:55:12.891Z,8.97
2018-11-06T00:57:43.021Z,8.73
2018-11-06T01:00:19.942Z,8.07
2018-11-06T01:02:48.996Z,8.73
2018-11-06T01:05:18.085Z,8.43
2018-11-06T01:07:47.815Z,8.87
2018-11-06T01:10:16.274Z,9.57
2018-11-06T01:12:44.906Z,8.83
2018-11-06T01:15:14.865Z,8.33
2018-11-06T01:17:44.375Z,8.30
2018-11-06T01:20:15.353Z,9.03
2018-11-06T01:22:43.999Z,9.40
2018-11-06T01:25:12.911Z,9.67
2018-11-06T01:27:41.543Z,8.83
2018-11-06T01:30:18.648Z,8.80
2018-11-06T01:32:47.342Z,9.27
2018-11-06T01:35:17.268Z,8.10
2018-11-06T01:37:46.367Z,8.97
2018-11-06T01:40:15.856Z,8.70
2018-11-06T01:42:44.942Z,8.67
2018-11-06T01:45:14.312Z,8.50
2018-11-06T01:47:42.891Z,8.17
2018-11-06T01:50:15.130Z,8.03
2018-11-06T01:52:44.603Z,7.90
2018-11-06T01:55:13.018Z,8.77
2018-11-06T01:57:41.734Z,7.90
2018-11-06T02:00:13.956Z,8.50
2018-11-06T02:02:42.413Z,8.40
2018-11-06T02:05:13.064Z,8.20
2018-11-06T02:07:42.868Z,9.20
2018-11-06T02:10:12.377Z,8.00
2018-11-06T02:12:41.501Z,8.97
2018-11-06T02:15:10.364Z,8.60
2018-11-06T02:17:40.174Z,9.07
2018-11-06T02:20:09.988Z,8.73
2018-11-06T02:22:38.879Z,9.07
2018-11-06T02:25:07.967Z,9.67
2018-11-06T02:27:36.859Z,8.27
2018-11-06T02:30:07.324Z,10.03
2018-11-06T02:32:36.178Z,8.80
2018-11-06T02:35:05.385Z,9.40
2018-11-06T02:37:33.811Z,9.20
2018-11-06T02:40:02.473Z,10.40
2018-11-06T02:42:31.140Z,8.23
2018-11-06T02:44:59.835Z,9.13
2018-11-06T02:47:28.532Z,9.30
2018-11-06T02:49:57.205Z,9.03
2018-11-06T02:52:25.932Z,9.00
2018-11-06T02:54:54.576Z,9.87
2018-11-06T02:57:28.193Z,9.60
2018-11-06T02:59:56.855Z,8.47
2018-11-06T03:02:25.551Z,9.07
2018-11-06T03:04:54.227Z,8.87
2018-11-06T03:07:22.950Z,10.33
2018-11-06T03:09:51.608Z,8.27
2018-11-06T03:12:20.268Z,9.53
2018-11-06T03:14:48.964Z,8.50
2018-11-06T03:17:17.663Z,8.77
2018-11-06T03:19:46.336Z,9.90
2018-11-06T03:22:15.013Z,9.77
2018-11-06T03:24:43.704Z,8.67
2018-11-06T03:27:12.390Z,9.00
2018-11-06T03:29:41.091Z,9.17
2018-11-06T03:32:09.779Z,9.90
2018-11-06T03:34:38.113Z,9.47
2018-11-06T03:37:06.719Z,8.63
2018-11-06T03:39:35.804Z,10.27
2018-11-06T03:42:04.520Z,9.03
2018-11-06T03:44:33.197Z,8.93
2018-11-06T03:47:02.436Z,10.07
2018-11-06T03:49:31.055Z,9.10
2018-11-06T03:51:59.642Z,9.40
2018-11-06T03:54:28.349Z,9.50
2018-11-06T03:56:57.425Z,9.83
2018-11-06T03:59:26.108Z,8.50
2018-11-06T04:01:54.814Z,9.87
2018-11-06T04:04:23.506Z,9.27
2018-11-06T04:06:52.654Z,9.53
2018-11-06T04:09:21.260Z,9.20
2018-11-06T04:11:49.948Z,9.50
2018-11-06T04:14:18.629Z,9.20
2018-11-06T04:16:47.313Z,10.00
2018-11-06T04:19:15.999Z,9.47
2018-11-06T04:21:44.698Z,9.60
2018-11-06T04:24:14.489Z,8.97
2018-11-06T04:26:42.899Z,8.70
2018-11-06T04:29:11.579Z,9.60
2018-11-06T04:31:40.744Z,9.93
2018-11-06T04:34:09.635Z,9.33
2018-11-06T04:36:38.030Z,9.37
2018-11-06T04:39:09.042Z,9.60
2018-11-06T04:41:37.455Z,8.17
2018-11-06T04:44:07.228Z,8.90
2018-11-06T04:46:35.647Z,9.00
2018-11-06T04:49:04.834Z,8.33
2018-11-06T04:51:33.421Z,9.00
2018-11-06T04:54:02.666Z,8.90
2018-11-06T04:56:31.693Z,7.80
2018-11-06T04:59:00.283Z,8.60
2018-11-06T05:01:28.843Z,9.27
2018-11-06T05:03:57.247Z,9.30
2018-11-06T05:06:25.936Z,9.17
2018-11-06T05:08:54.614Z,9.20
2018-11-06T05:11:23.762Z,9.00
2018-11-06T05:13:52.401Z,9.50
2018-11-06T05:16:21.097Z,8.60
2018-11-06T05:18:49.771Z,9.03
2018-11-06T05:21:18.120Z,8.83
2018-11-06T05:23:46.735Z,8.73
2018-11-06T05:26:15.424Z,8.23
2018-11-06T05:28:44.095Z,8.70
2018-11-06T05:31:12.792Z,8.90
2018-11-06T05:33:41.475Z,8.43
2018-11-06T05:36:10.159Z,7.40
2018-11-06T05:38:38.844Z,8.70
2018-11-06T05:41:08.429Z,8.40
2018-11-06T05:43:37.940Z,9.40
2018-11-06T05:46:06.620Z,8.40
2018-11-06T05:48:35.222Z,8.40
2018-11-06T05:51:03.919Z,8.53
2018-11-06T05:53:32.602Z,9.20
2018-11-06T05:56:01.284Z,8.40
2018-11-06T05:58:29.981Z,7.93
2018-11-06T06:00:58.631Z,7.93
2018-11-06T06:03:27.279Z,8.20
2018-11-06T06:05:55.941Z,8.13
2018-11-06T06:08:24.710Z,8.00
2018-11-06T06:10:53.411Z,8.23
2018-11-06T06:13:22.094Z,9.03
2018-11-06T06:15:50.757Z,8.83
2018-11-06T06:18:19.450Z,8.83
2018-11-06T06:20:48.115Z,8.30
2018-11-06T06:23:16.475Z,8.40
2018-11-06T06:25:45.082Z,8.50
2018-11-06T06:28:13.789Z,8.20
2018-11-06T06:30:42.124Z,8.53
2018-11-06T06:33:10.731Z,8.50
2018-11-06T06:35:39.412Z,8.80
2018-11-06T06:38:08.095Z,8.40
2018-11-06T06:40:36.799Z,7.83
2018-11-06T06:43:05.764Z,8.87
2018-11-06T06:45:34.152Z,9.20
2018-11-06T06:48:02.835Z,8.40
2018-11-06T06:50:31.520Z,8.77
2018-11-06T06:53:00.210Z,8.23
2018-11-06T06:55:28.887Z,8.07
2018-11-06T06:57:57.591Z,8.70
2018-11-06T07:00:26.266Z,8.07
2018-11-06T07:02:54.948Z,8.10
2018-11-06T07:05:24.471Z,8.30
2018-11-06T07:07:53.113Z,8.23
2018-11-06T07:10:22.759Z,8.27
2018-11-06T07:12:51.655Z,8.20
2018-11-06T07:15:21.150Z,7.40
2018-11-06T07:17:50.227Z,8.40
2018-11-06T07:20:24.344Z,8.53
2018-11-06T07:22:53.044Z,8.03
2018-11-06T07:25:21.778Z,7.80
2018-11-06T07:27:50.105Z,8.33
2018-11-06T07:30:21.020Z,8.23
2018-11-06T07:32:49.506Z,7.60
2018-11-06T07:35:18.717Z,8.07
2018-11-06T07:37:47.288Z,8.27
2018-11-06T07:40:17.041Z,7.60
2018-11-06T07:42:45.582Z,8.10
2018-11-06T07:45:21.999Z,8.07
2018-11-06T07:47:50.532Z,9.20
2018-11-06T07:50:18.932Z,7.73
2018-11-06T07:52:47.492Z,7.63
2018-11-06T07:55:17.500Z,8.20
2018-11-06T07:57:46.179Z,7.90
2018-11-06T08:00:18.307Z,8.87
2018-11-06T08:02:47.658Z,7.80
2018-11-06T08:05:16.751Z,7.33
2018-11-06T08:07:46.260Z,8.13
2018-11-06T08:10:14.844Z,7.60
2018-11-06T08:12:45.927Z,8.50
2018-11-06T08:15:14.798Z,7.50
2018-11-06T08:17:44.489Z,7.70
2018-11-06T08:20:13.147Z,8.40
2018-11-06T08:22:41.585Z,8.67
2018-11-06T08:25:11.550Z,8.10
2018-11-06T08:27:40.887Z,7.70
2018-11-06T08:30:10.404Z,7.73
2018-11-06T08:32:39.258Z,8.23
2018-11-06T08:35:10.642Z,9.13
2018-11-06T08:37:39.383Z,7.60
2018-11-06T08:40:08.916Z,7.60
2018-11-06T08:42:37.670Z,7.23
2018-11-06T08:45:07.596Z,7.00
2018-11-06T08:47:36.313Z,9.07
2018-11-06T08:50:05.440Z,8.00
2018-11-06T08:52:33.963Z,7.63
2018-11-06T08:55:04.287Z,7.53
2018-11-06T08:57:32.925Z,7.10
2018-11-06T09:00:01.653Z,6.97
2018-11-06T09:02:30.462Z,8.20
2018-11-06T09:04:59.034Z,7.47
2018-11-06T09:07:27.715Z,7.47
2018-11-06T09:09:56.418Z,8.10
2018-11-06T09:12:25.088Z,7.70
2018-11-06T09:14:53.775Z,7.37
2018-11-06T09:17:22.468Z,8.03
2018-11-06T09:19:51.156Z,7.97
2018-11-06T09:22:19.471Z,7.83
2018-11-06T09:24:47.918Z,7.60
2018-11-06T09:27:16.239Z,7.80
2018-11-06T09:29:44.679Z,8.27
2018-11-06T09:32:13.363Z,7.63
2018-11-06T09:34:42.500Z,7.43
2018-11-06T09:37:10.967Z,7.50
2018-11-06T09:39:39.429Z,7.67
2018-11-06T09:42:07.739Z,8.30
2018-11-06T09:44:36.406Z,8.37
2018-11-06T09:47:05.541Z,8.03
2018-11-06T09:49:34.208Z,8.27
2018-11-06T09:52:02.973Z,7.67
2018-11-06T09:54:31.596Z,8.50
2018-11-06T09:57:00.243Z,8.13
2018-11-06T09:59:28.905Z,7.27
2018-11-06T10:01:57.615Z,7.23
2018-11-06T10:04:26.311Z,7.10
2018-11-06T10:06:55.122Z,7.97
2018-11-06T10:09:23.704Z,7.80
2018-11-06T10:11:52.245Z,7.53
2018-11-06T10:14:20.639Z,7.00
2018-11-06T10:16:49.323Z,7.87
2018-11-06T10:19:17.657Z,7.23
2018-11-06T10:21:46.309Z,7.77
2018-11-06T10:24:14.983Z,7.60
2018-11-06T10:26:43.656Z,7.70
2018-11-06T10:29:12.359Z,7.13
2018-11-06T10:31:41.037Z,7.50
2018-11-06T10:34:09.380Z,7.40
2018-11-06T10:36:38.004Z,7.33
2018-11-06T10:39:09.449Z,6.70
2018-11-06T10:41:37.867Z,7.30
2018-11-06T10:44:07.344Z,6.90
2018-11-06T10:46:36.035Z,7.57
2018-11-06T10:49:04.540Z,7.37
2018-11-06T10:51:33.003Z,6.70
2018-11-06T10:54:01.680Z,7.40
2018-11-06T10:56:30.377Z,7.40
2018-11-06T10:58:59.056Z,7.13
2018-11-06T11:01:33.133Z,6.90
2018-11-06T11:04:06.715Z,7.20
2018-11-06T11:06:35.354Z,7.50
2018-11-06T11:09:06.235Z,7.00
2018-11-06T11:11:34.776Z,6.67
2018-11-06T11:14:03.466Z,6.53
2018-11-06T11:16:32.143Z,7.53
2018-11-06T11:19:00.924Z,6.60
2018-11-06T11:21:29.817Z,6.90
2018-11-06T11:23:58.199Z,8.10
2018-11-06T11:26:26.907Z,6.47
2018-11-06T11:28:55.573Z,6.80
2018-11-06T11:31:24.299Z,6.80
2018-11-06T11:33:52.960Z,7.07
2018-11-06T11:36:21.639Z,7.30
2018-11-06T11:38:50.312Z,7.37
2018-11-06T11:41:19.037Z,7.60
2018-11-06T11:43:47.688Z,7.27
2018-11-06T11:46:16.372Z,7.00
2018-11-06T11:48:45.053Z,7.07
2018-11-06T11:51:13.381Z,6.97
2018-11-06T11:53:42.014Z,6.70
2018-11-06T11:56:10.731Z,7.33
2018-11-06T11:58:40.245Z,6.30
2018-11-06T12:01:08.905Z,7.13
2018-11-06T12:03:37.577Z,6.90
2018-11-06T12:06:06.326Z,7.30
2018-11-06T12:08:34.949Z,6.57
2018-11-06T12:11:04.460Z,7.00
2018-11-06T12:13:33.153Z,6.70
2018-11-06T12:16:01.864Z,6.50
2018-11-06T12:18:30.516Z,6.70
2018-11-06T12:20:59.204Z,7.10
2018-11-06T12:23:27.882Z,6.83
2018-11-06T12:25:56.567Z,7.13
2018-11-06T12:28:25.091Z,7.40
2018-11-06T12:30:53.535Z,7.23
2018-11-06T12:33:22.273Z,6.33
2018-11-06T12:35:50.907Z,6.83
2018-11-06T12:38:19.249Z,6.93
2018-11-06T12:40:47.878Z,7.30
2018-11-06T12:43:16.576Z,6.90
2018-11-06T12:45:45.718Z,7.37
2018-11-06T12:48:14.340Z,7.20
2018-11-06T12:50:42.671Z,7.40
2018-11-06T12:53:11.300Z,7.00
2018-11-06T12:55:39.983Z,6.73
2018-11-06T12:58:08.689Z,7.53
2018-11-06T13:00:37.352Z,7.33
2018-11-06T13:03:07.451Z,6.50
2018-11-06T13:05:35.943Z,8.80
2018-11-06T13:08:04.947Z,6.60
2018-11-06T13:10:33.320Z,7.07
2018-11-06T13:13:02.012Z,6.70
2018-11-06T13:15:30.769Z,6.80
2018-11-06T13:17:59.387Z,6.70
2018-11-06T13:20:28.063Z,6.40
2018-11-06T13:22:56.755Z,6.90
2018-11-06T13:25:25.489Z,6.60
2018-11-06T13:27:54.127Z,7.00
2018-11-06T13:30:22.815Z,7.07
2018-11-06T13:32:51.494Z,6.13
2018-11-06T13:35:20.160Z,7.30
2018-11-06T13:37:48.863Z,6.87
2018-11-06T13:40:17.845Z,7.47
2018-11-06T13:42:46.723Z,7.00
2018-11-06T13:45:16.784Z,6.03
2018-11-06T13:47:45.247Z,7.23
2018-11-06T13:50:13.573Z,5.90
2018-11-06T13:52:42.215Z,6.70
2018-11-06T13:55:12.632Z,6.50
2018-11-06T13:57:41.528Z,6.23
2018-11-06T14:00:14.103Z,6.30
2018-11-06T14:02:42.989Z,6.17
2018-11-06T14:05:11.703Z,6.77
2018-11-06T14:07:40.083Z,6.00
2018-11-06T14:10:09.135Z,5.90
2018-11-06T14:12:38.255Z,6.50
2018-11-06T14:15:06.743Z,6.60
2018-11-06T14:17:35.071Z,6.90
2018-11-06T14:20:03.793Z,6.17
2018-11-06T14:22:32.231Z,5.77
2018-11-06T14:25:00.568Z,6.10
2018-11-06T14:27:29.162Z,6.60
2018-11-06T14:29:57.507Z,6.10
2018-11-06T14:32:26.072Z,6.47
2018-11-06T14:34:54.776Z,5.83
2018-11-06T14:37:23.562Z,6.80
2018-11-06T14:39:51.877Z,6.03
2018-11-06T14:42:20.435Z,6.20
2018-11-06T14:44:49.097Z,6.67
2018-11-06T14:47:17.805Z,5.77
2018-11-06T14:49:46.475Z,6.00
2018-11-06T14:52:15.163Z,5.50
2018-11-06T14:54:43.892Z,6.40
2018-11-06T14:57:12.231Z,5.93
2018-11-06T14:59:40.831Z,6.10
2018-11-06T15:02:09.499Z,5.97
2018-11-06T15:04:38.187Z,5.80
2018-11-06T15:07:06.864Z,5.80
2018-11-06T15:09:35.564Z,6.33
2018-11-06T15:12:04.255Z,6.50
2018-11-06T15:14:32.621Z,5.93
2018-11-06T15:17:00.967Z,6.27
2018-11-06T15:19:29.484Z,5.93
2018-11-06T15:21:58.245Z,6.40
2018-11-06T15:24:26.571Z,6.03
2018-11-06T15:26:55.133Z,6.00
2018-11-06T15:29:23.812Z,6.13
2018-11-06T15:31:52.508Z,6.20
2018-11-06T15:34:21.191Z,6.10
2018-11-06T15:36:49.885Z,6.03
2018-11-06T15:39:18.609Z,5.73
2018-11-06T15:41:47.373Z,5.60
2018-11-06T15:44:15.938Z,6.23
2018-11-06T15:46:44.632Z,5.63
2018-11-06T15:49:13.392Z,6.20
2018-11-06T15:51:42.002Z,5.33
2018-11-06T15:54:10.699Z,5.83
2018-11-06T15:56:39.476Z,6.33
2018-11-06T15:59:08.095Z,5.83
2018-11-06T16:01:36.781Z,5.97
2018-11-06T16:04:05.763Z,6.00
2018-11-06T16:06:34.131Z,5.80
2018-11-06T16:09:03.988Z,6.00
2018-11-06T16:11:32.731Z,6.50
2018-11-06T16:14:01.418Z,5.33
2018-11-06T16:16:30.118Z,6.27
2018-11-06T16:18:58.795Z,5.80
2018-11-06T16:21:27.479Z,6.20
2018-11-06T16:23:56.185Z,6.10
2018-11-06T16:26:24.853Z,5.70
2018-11-06T16:28:53.643Z,5.87
2018-11-06T16:31:22.245Z,6.03
2018-11-06T16:33:50.965Z,5.97
2018-11-06T16:36:19.711Z,6.00
2018-11-06T16:38:48.312Z,5.53
2018-11-06T16:41:17.276Z,6.67
2018-11-06T16:43:45.633Z,5.97
2018-11-06T16:46:14.412Z,6.67
2018-11-06T16:48:43.040Z,5.50
2018-11-06T16:51:11.731Z,6.20
2018-11-06T16:53:40.420Z,6.00
2018-11-06T16:56:09.139Z,6.03
2018-11-06T16:58:37.792Z,6.40
2018-11-06T17:01:06.742Z,5.97
2018-11-06T17:03:35.188Z,5.70
2018-11-06T17:06:03.886Z,6.07
2018-11-06T17:08:32.565Z,5.43
2018-11-06T17:11:01.252Z,5.83
2018-11-06T17:13:30.208Z,6.43
2018-11-06T17:15:58.627Z,5.63
2018-11-06T17:18:27.316Z,5.80
2018-11-06T17:20:56.720Z,5.43
2018-11-06T17:23:25.101Z,5.83
2018-11-06T17:25:53.763Z,6.37
2018-11-06T17:28:22.732Z,6.97
2018-11-06T17:30:51.199Z,5.67
2018-11-06T17:33:22.705Z,5.60
2018-11-06T17:35:51.197Z,6.20
2018-11-06T17:38:19.669Z,6.57
2018-11-06T17:40:48.358Z,6.10
2018-11-06T17:43:17.059Z,6.60
2018-11-06T17:45:45.769Z,6.03
2018-11-06T17:48:14.436Z,5.67
2018-11-06T17:50:43.111Z,5.63
2018-11-06T17:53:11.793Z,6.30
2018-11-06T17:55:40.520Z,5.37
2018-11-06T17:58:09.163Z,6.10
2018-11-06T18:00:37.865Z,5.50
2018-11-06T18:03:06.557Z,6.47
2018-11-06T18:05:35.235Z,5.20
2018-11-06T18:08:03.926Z,6.03
2018-11-06T18:10:32.673Z,5.90
2018-11-06T18:13:01.293Z,5.90
2018-11-06T18:15:29.991Z,5.60
2018-11-06T18:17:58.687Z,6.20
2018-11-06T18:20:27.358Z,5.97
2018-11-06T18:22:56.053Z,6.30
2018-11-06T18:25:24.826Z,5.57
2018-11-06T18:27:53.430Z,5.53
2018-11-06T18:30:22.129Z,6.17
2018-11-06T18:32:50.820Z,5.27
2018-11-06T18:35:19.788Z,6.00
2018-11-06T18:37:48.192Z,5.93
2018-11-06T18:40:18.384Z,5.67
2018-11-06T18:42:47.684Z,5.30
2018-11-06T18:45:16.583Z,5.73
2018-11-06T18:47:45.855Z,4.97
2018-11-06T18:50:15.384Z,5.77
2018-11-06T18:52:45.323Z,5.00
2018-11-06T18:55:13.785Z,5.80
2018-11-06T18:57:42.475Z,5.10
2018-11-06T19:00:20.634Z,5.00
2018-11-06T19:02:53.381Z,4.83
2018-11-06T19:05:22.868Z,5.20
2018-11-06T19:07:51.201Z,5.07
2018-11-06T19:10:20.291Z,4.97
2018-11-06T19:12:49.039Z,5.80
2018-11-06T19:15:20.079Z,4.87
2018-11-06T19:17:48.959Z,5.40
2018-11-06T19:20:17.660Z,4.53
2018-11-06T19:22:46.547Z,5.43
2018-11-06T19:25:15.448Z,4.73
2018-11-06T19:27:44.127Z,5.07
2018-11-06T19:30:14.244Z,5.37
2018-11-06T19:32:42.596Z,5.17
2018-11-06T19:35:11.340Z,5.73
2018-11-06T19:37:40.507Z,4.60
2018-11-06T19:40:11.324Z,4.73
2018-11-06T19:42:40.753Z,5.33
2018-11-06T19:45:10.467Z,5.27
2018-11-06T19:47:38.807Z,5.00
2018-11-06T19:50:09.325Z,5.20
2018-11-06T19:52:38.384Z,4.70
2018-11-06T19:55:08.700Z,5.30
2018-11-06T19:57:37.309Z,4.40
2018-11-06T20:00:13.678Z,5.10
2018-11-06T20:02:43.168Z,4.87
2018-11-06T20:05:11.605Z,5.40
2018-11-06T20:07:42.043Z,4.40
2018-11-06T20:10:12.715Z,5.77
2018-11-06T20:12:42.423Z,4.40
2018-11-06T20:15:12.155Z,4.50
2018-11-06T20:17:41.867Z,4.73
2018-11-06T20:20:13.948Z,4.73
2018-11-06T20:22:42.655Z,4.43
2018-11-06T20:25:11.996Z,4.73
2018-11-06T20:27:40.400Z,4.57
2018-11-06T20:30:10.951Z,4.90
2018-11-06T20:32:39.424Z,4.90
2018-11-06T20:35:08.991Z,6.07
2018-11-06T20:37:38.162Z,5.10
2018-11-06T20:40:08.595Z,5.70
2018-11-06T20:42:37.010Z,5.10
2018-11-06T20:45:06.619Z,5.20
2018-11-06T20:47:35.223Z,5.57
2018-11-06T20:50:04.209Z,4.80
2018-11-06T20:52:33.044Z,5.13
2018-11-06T20:55:01.692Z,4.77
2018-11-06T20:57:30.024Z,4.80
2018-11-06T20:59:58.718Z,5.20
2018-11-06T21:02:27.349Z,5.57
2018-11-06T21:04:56.037Z,5.33
2018-11-06T21:07:24.727Z,4.63
2018-11-06T21:09:53.405Z,4.67
2018-11-06T21:12:22.089Z,5.30
2018-11-06T21:14:50.428Z,5.23
2018-11-06T21:17:18.760Z,5.10
2018-11-06T21:19:47.368Z,5.00
2018-11-06T21:22:16.037Z,5.00
2018-11-06T21:24:44.510Z,5.10
2018-11-06T21:27:13.110Z,5.40
2018-11-06T21:29:41.336Z,5.83
2018-11-06T21:32:09.959Z,4.70
2018-11-06T21:34:38.655Z,5.20
2018-11-06T21:37:07.327Z,5.13
2018-11-06T21:39:36.017Z,5.30
2018-11-06T21:42:04.804Z,4.87
2018-11-06T21:44:33.387Z,5.13
2018-11-06T21:47:02.071Z,5.30
2018-11-06T21:49:30.766Z,5.00
2018-11-06T21:51:59.464Z,5.30
2018-11-06T21:54:28.142Z,5.97
2018-11-06T21:56:56.826Z,5.37
2018-11-06T21:59:25.531Z,5.00
2018-11-06T22:01:53.860Z,4.90
2018-11-06T22:04:22.500Z,5.40
2018-11-06T22:06:51.169Z,5.10
2018-11-06T22:09:19.884Z,5.50
2018-11-06T22:11:48.552Z,5.20
2018-11-06T22:14:17.233Z,5.30
2018-11-06T22:16:45.911Z,5.87
2018-11-06T22:19:14.613Z,5.00
2018-11-06T22:21:43.336Z,5.90
2018-11-06T22:24:11.978Z,5.27
2018-11-06T22:26:41.515Z,5.60
2018-11-06T22:29:10.211Z,5.00
2018-11-06T22:31:39.242Z,5.60
2018-11-06T22:34:07.580Z,5.93
2018-11-06T22:36:40.757Z,5.40
2018-11-06T22:39:10.330Z,5.70
2018-11-06T22:41:39.440Z,5.20
2018-11-06T22:44:08.768Z,5.97
2018-11-06T22:46:37.649Z,5.90
2018-11-06T22:49:07.359Z,5.73
2018-11-06T22:51:35.724Z,5.93
2018-11-06T22:54:04.453Z,5.90
2018-11-06T22:56:33.119Z,5.87
2018-11-06T22:59:01.787Z,5.60
2018-11-06T23:01:30.484Z,5.20
2018-11-06T23:03:59.165Z,5.90
2018-11-06T23:06:27.885Z,5.60
2018-11-06T23:08:56.563Z,5.77
2018-11-06T23:11:25.254Z,5.60
2018-11-06T23:13:53.927Z,5.60
2018-11-06T23:16:22.607Z,5.47
2018-11-06T23:18:51.296Z,5.07
2018-11-06T23:21:19.988Z,5.20
2018-11-06T23:23:48.673Z,5.40
2018-11-06T23:26:17.357Z,6.23
2018-11-06T23:28:46.058Z,5.53
2018-11-06T23:31:14.731Z,5.50
2018-11-06T23:33:43.722Z,5.50
2018-11-06T23:36:12.104Z,6.10
2018-11-06T23:38:40.809Z,6.00
2018-11-06T23:41:09.489Z,5.90
2018-11-06T23:43:38.172Z,5.67
2018-11-06T23:46:07.152Z,6.30
2018-11-06T23:48:35.559Z,5.70
2018-11-06T23:51:04.247Z,6.30
2018-11-06T23:53:32.941Z,6.27
2018-11-06T23:56:01.635Z,6.13
2018-11-06T23:58:30.300Z,6.20
